Time;durP1;ratioP1;P1;durP2;ratioP2;P2;SDS_P1;SDS_P2;PMS_P1;PMS_P2;Temp;Humidity;BMP_temperature;BMP_pressure;BME280_temperature;BME280_humidity;BME280_pressure;Samples;Min_cycle;Max_cycle;Signal;HPM_P1;HPM_P2
2024/01/14 00:01:01;;;;;;;11.55;5.68;;;1.70;99.90;;;;;;2602651;54;20231;31
2024/01/14 00:03:37;;;;;;;10.17;5.57;;;1.70;99.90;;;;;;2602765;54;20882;31
2024/01/14 00:06:12;;;;;;;11.93;5.95;;;1.70;99.90;;;;;;2602484;54;20105;31
2024/01/14 00:08:47;;;;;;;11.63;6.23;;;1.70;99.90;;;;;;2602554;54;20034;31
2024/01/14 00:11:25;;;;;;;10.45;5.40;;;1.70;99.90;;;;;;2602487;54;20099;31
2024/01/14 00:14:00;;;;;;;9.50;5.70;;;1.70;99.90;;;;;;2603579;54;20858;31
2024/01/14 00:16:35;;;;;;;12.82;5.85;;;1.70;99.90;;;;;;2603489;54;20852;31
2024/01/14 00:19:11;;;;;;;11.32;6.07;;;1.70;99.90;;;;;;2603321;54;20026;31
2024/01/14 00:21:47;;;;;;;10.75;5.70;;;1.70;99.90;;;;;;2603646;54;20037;31
2024/01/14 00:24:22;;;;;;;9.05;5.40;;;1.70;99.90;;;;;;2603133;54;20084;31
2024/01/14 00:26:59;;;;;;;12.40;6.10;;;1.70;99.90;;;;;;2603464;54;21017;31
2024/01/14 00:29:36;;;;;;;9.93;6.00;;;1.70;99.90;;;;;;2603560;54;21073;31
2024/01/14 00:32:10;;;;;;;;;;;1.70;99.90;;;;;;2603470;54;20821;31
2024/01/14 00:34:45;;;;;;;9.70;5.20;;;1.70;99.90;;;;;;2603153;54;19935;31
2024/01/14 00:37:20;;;;;;;9.93;5.53;;;1.70;99.90;;;;;;2603300;54;20065;31
2024/01/14 00:39:53;;;;;;;6.73;4.23;;;1.70;99.90;;;;;;2603420;54;22358;31
2024/01/14 00:42:31;;;;;;;11.93;5.77;;;1.70;99.90;;;;;;2603513;54;20250;31
2024/01/14 00:45:07;;;;;;;9.13;4.95;;;1.70;99.90;;;;;;2603285;54;20249;31
2024/01/14 00:47:42;;;;;;;8.60;4.60;;;1.80;99.90;;;;;;2603456;54;20030;31
2024/01/14 00:50:17;;;;;;;9.97;5.10;;;1.80;99.90;;;;;;2603158;54;20077;31
2024/01/14 00:52:52;;;;;;;9.18;4.47;;;1.80;99.90;;;;;;2603162;54;21020;31
2024/01/14 00:55:27;;;;;;;8.67;4.57;;;1.80;99.90;;;;;;2603235;54;20850;31
2024/01/14 00:58:08;;;;;;;9.30;4.63;;;1.80;99.90;;;;;;2603122;54;20250;31
2024/01/14 01:00:43;;;;;;;10.33;4.70;;;1.90;99.90;;;;;;2603217;54;20869;31
2024/01/14 01:03:19;;;;;;;9.75;5.50;;;1.90;99.90;;;;;;2603217;54;20990;31
2024/01/14 01:05:54;;;;;;;9.55;4.88;;;1.90;99.90;;;;;;2603418;54;20948;31
2024/01/14 01:08:28;;;;;;;9.73;4.95;;;1.90;99.90;;;;;;2621521;46;22326;31
2024/01/14 01:11:05;;;;;;;9.60;5.47;;;1.90;99.90;;;;;;2603420;54;20767;31
2024/01/14 01:13:44;;;;;;;9.57;4.53;;;1.80;99.90;;;;;;2621533;46;20892;31
2024/01/14 01:16:19;;;;;;;8.75;4.70;;;1.80;99.90;;;;;;2603075;54;20257;31
2024/01/14 01:18:54;;;;;;;9.53;5.27;;;1.80;99.90;;;;;;2622166;46;20030;31
2024/01/14 01:21:30;;;;;;;7.80;4.15;;;1.80;99.90;;;;;;2603206;54;21105;31
2024/01/14 01:24:03;;;;;;;7.65;4.70;;;1.80;99.90;;;;;;2603213;54;22340;31
2024/01/14 01:26:38;;;;;;;11.55;4.93;;;1.90;99.90;;;;;;2603280;54;20037;31
2024/01/14 01:29:16;;;;;;;7.88;3.90;;;1.90;99.90;;;;;;2603379;54;20882;31
2024/01/14 01:31:51;;;;;;;7.88;4.35;;;1.90;99.90;;;;;;2603259;54;20028;31
2024/01/14 01:34:38;;;;;;;7.35;4.50;;;1.90;99.90;;;;;;2603023;54;20089;31
2024/01/14 01:37:13;;;;;;;;;;;1.90;99.90;;;;;;2603554;54;20030;31
2024/01/14 01:39:48;;;;;;;7.38;4.00;;;1.90;99.90;;;;;;2603180;54;19935;31
2024/01/14 01:42:23;;;;;;;7.35;3.80;;;1.90;99.90;;;;;;2603041;54;20026;31
2024/01/14 01:45:00;;;;;;;8.20;4.60;;;1.90;99.90;;;;;;2603211;54;20038;31
2024/01/14 01:47:36;;;;;;;7.13;3.45;;;1.90;99.90;;;;;;2621342;46;20057;31
2024/01/14 01:50:11;;;;;;;6.67;4.03;;;1.90;99.90;;;;;;2621626;46;20035;31
2024/01/14 01:52:47;;;;;;;6.87;3.50;;;1.90;99.90;;;;;;2602966;54;20026;31
2024/01/14 01:55:22;;;;;;;6.75;3.75;;;1.90;99.90;;;;;;2603272;54;20063;31
2024/01/14 01:57:57;;;;;;;7.50;3.53;;;1.90;99.90;;;;;;2603289;54;20891;31
2024/01/14 02:00:36;;;;;;;6.57;4.17;;;1.90;99.90;;;;;;2603012;54;20294;31
2024/01/14 02:03:11;;;;;;;8.95;4.30;;;1.90;99.90;;;;;;2603022;54;20026;31
2024/01/14 02:05:47;;;;;;;12.80;4.53;;;1.90;99.90;;;;;;2603256;54;20743;31
2024/01/14 02:08:22;;;;;;;7.25;3.28;;;1.90;99.90;;;;;;2621412;46;20038;31
2024/01/14 02:10:57;;;;;;;7.70;4.15;;;1.80;99.90;;;;;;2603029;54;20026;31
2024/01/14 02:13:32;;;;;;;7.75;4.90;;;1.90;99.90;;;;;;2603186;54;20773;31
2024/01/14 02:16:10;;;;;;;7.00;3.67;;;1.80;99.90;;;;;;2603109;54;20022;31
2024/01/14 02:18:45;;;;;;;8.05;4.75;;;1.80;99.90;;;;;;2602296;54;20038;31
2024/01/14 02:21:22;;;;;;;11.30;4.50;;;1.80;99.90;;;;;;2603061;54;20912;31
2024/01/14 02:24:03;;;;;;;8.23;4.40;;;1.80;99.90;;;;;;2602878;54;20793;31
2024/01/14 02:26:41;;;;;;;7.28;4.10;;;1.80;99.90;;;;;;2701356;39;20426;31
2024/01/14 02:29:17;;;;;;;7.30;4.30;;;1.80;99.90;;;;;;2701641;39;21529;31
2024/01/14 02:31:52;;;;;;;7.50;4.38;;;1.80;99.90;;;;;;2621510;46;20030;31
2024/01/14 02:34:27;;;;;;;8.93;4.53;;;1.80;99.90;;;;;;2602851;54;20868;31
2024/01/14 02:37:03;;;;;;;8.52;4.25;;;1.80;99.90;;;;;;2602824;54;20030;31
2024/01/14 02:39:38;;;;;;;8.40;4.43;;;1.80;99.90;;;;;;2602992;54;20922;31
2024/01/14 02:42:17;;;;;;;10.75;4.13;;;1.80;99.90;;;;;;2602881;54;20866;31
2024/01/14 02:44:52;;;;;;;7.90;4.70;;;1.70;99.90;;;;;;2602784;54;20872;31
2024/01/14 02:47:27;;;;;;;8.70;3.63;;;1.70;99.90;;;;;;2602998;54;21058;31
2024/01/14 02:50:02;;;;;;;7.60;4.10;;;1.70;99.90;;;;;;2602921;54;20034;31
2024/01/14 02:52:38;;;;;;;9.20;3.65;;;1.80;99.90;;;;;;2603081;54;20846;31
2024/01/14 02:55:13;;;;;;;7.15;3.42;;;1.80;99.90;;;;;;2621411;46;20031;31
2024/01/14 02:57:51;;;;;;;6.60;4.10;;;1.70;99.90;;;;;;2602848;54;20038;31
2024/01/14 03:00:26;;;;;;;9.00;4.50;;;1.70;99.90;;;;;;2602829;54;20922;31
2024/01/14 03:03:01;;;;;;;7.93;4.30;;;1.70;99.90;;;;;;2602990;54;20057;31
2024/01/14 03:05:36;;;;;;;7.30;4.10;;;1.70;99.90;;;;;;2621101;46;20030;31
2024/01/14 03:08:11;;;;;;;8.80;4.00;;;1.70;99.90;;;;;;2621200;46;20057;31
2024/01/14 03:10:46;;;;;;;8.40;4.30;;;1.70;99.90;;;;;;2602831;54;20026;31
2024/01/14 03:13:24;;;;;;;9.60;4.45;;;1.70;99.90;;;;;;2602810;54;20088;31
2024/01/14 03:15:59;;;;;;;8.53;3.93;;;1.70;99.90;;;;;;2621172;46;20034;31
2024/01/14 03:18:34;;;;;;;10.10;3.95;;;1.70;99.90;;;;;;2621576;46;20865;31
2024/01/14 03:21:09;;;;;;;9.23;3.83;;;1.70;99.90;;;;;;2621062;46;20058;31
2024/01/14 03:23:44;;;;;;;7.90;3.45;;;1.70;99.90;;;;;;2602816;54;20031;31
2024/01/14 03:26:19;;;;;;;10.13;3.63;;;1.70;99.90;;;;;;2602888;54;20037;31
2024/01/14 03:28:57;;;;;;;7.07;3.70;;;1.70;99.90;;;;;;2621274;46;20026;31
2024/01/14 03:31:32;;;;;;;10.17;3.47;;;1.70;99.90;;;;;;2602726;54;20923;31
2024/01/14 03:34:07;;;;;;;7.03;3.50;;;1.70;99.90;;;;;;2602898;54;20235;31
2024/01/14 03:36:42;;;;;;;7.78;3.40;;;1.70;99.90;;;;;;2602857;54;20884;31
2024/01/14 03:39:17;;;;;;;7.40;3.70;;;1.70;99.90;;;;;;2602824;54;20029;31
2024/01/14 03:41:52;;;;;;;7.85;3.40;;;1.70;99.90;;;;;;2620751;47;20034;31
2024/01/14 03:44:29;;;;;;;6.40;3.60;;;1.70;99.90;;;;;;2621090;47;20933;31
2024/01/14 03:47:05;;;;;;;7.32;3.03;;;1.70;99.90;;;;;;2603191;54;20848;31
2024/01/14 03:49:40;;;;;;;7.73;3.30;;;1.70;99.90;;;;;;2603650;54;20071;31
2024/01/14 03:52:15;;;;;;;5.17;2.90;;;1.70;99.90;;;;;;2603743;54;21045;31
2024/01/14 03:54:50;;;;;;;8.50;3.60;;;1.70;99.90;;;;;;2603669;54;20071;31
2024/01/14 03:57:26;;;;;;;6.77;3.50;;;1.70;99.90;;;;;;2603568;54;20296;31
2024/01/14 04:00:03;;;;;;;6.27;3.27;;;1.70;99.90;;;;;;2603465;54;20033;31
2024/01/14 04:02:39;;;;;;;7.30;3.65;;;1.70;99.90;;;;;;2603589;54;20026;31
2024/01/14 04:05:14;;;;;;;5.95;3.30;;;1.70;99.90;;;;;;2603475;54;20045;31
2024/01/14 04:07:52;;;;;;;5.17;2.87;;;1.80;99.90;;;;;;2621963;46;20051;31
2024/01/14 04:10:27;;;;;;;5.00;3.20;;;1.80;99.90;;;;;;2603358;54;20030;31
2024/01/14 04:13:02;;;;;;;9.20;3.20;;;1.80;99.90;;;;;;2603372;54;20061;31
2024/01/14 04:15:40;;;;;;;4.75;2.58;;;1.70;99.90;;;;;;2603403;54;20113;31
2024/01/14 04:18:15;;;;;;;7.70;3.25;;;1.80;99.90;;;;;;2603503;54;20026;31
2024/01/14 04:20:50;;;;;;;5.22;2.97;;;1.70;99.90;;;;;;2603567;54;20038;31
2024/01/14 04:23:25;;;;;;;6.55;3.65;;;1.80;99.90;;;;;;2603368;54;20164;31
2024/01/14 04:26:00;;;;;;;6.20;3.60;;;1.80;99.90;;;;;;2603364;54;20031;31
2024/01/14 04:28:35;;;;;;;6.43;2.90;;;1.70;99.90;;;;;;2603443;54;20263;31
2024/01/14 04:31:13;;;;;;;6.57;3.55;;;1.80;99.90;;;;;;2621892;46;20281;31
2024/01/14 04:33:49;;;;;;;6.68;3.90;;;1.70;99.90;;;;;;2621956;46;20069;31
2024/01/14 04:36:24;;;;;;;6.80;3.47;;;1.80;99.90;;;;;;2603369;54;20159;31
2024/01/14 04:38:59;;;;;;;6.82;3.90;;;1.80;99.90;;;;;;2603266;54;20116;31
2024/01/14 04:41:34;;;;;;;9.75;4.28;;;1.70;99.90;;;;;;2603589;54;20030;31
2024/01/14 04:44:09;;;;;;;7.05;4.07;;;1.70;99.90;;;;;;2603322;54;20912;31
2024/01/14 04:46:48;;;;;;;8.07;4.28;;;1.80;99.90;;;;;;2603472;54;20844;31
2024/01/14 04:49:23;;;;;;;5.77;2.97;;;1.80;99.90;;;;;;2603249;54;20757;31
2024/01/14 04:51:58;;;;;;;5.78;2.95;;;1.80;99.90;;;;;;2701753;39;21639;31
2024/01/14 04:54:33;;;;;;;5.97;3.17;;;1.80;99.90;;;;;;2603302;54;20031;31
2024/01/14 04:57:08;;;;;;;5.70;3.40;;;1.80;99.90;;;;;;2603287;54;20898;31
2024/01/14 04:59:44;;;;;;;5.70;3.13;;;1.80;99.90;;;;;;2603222;54;20035;31
2024/01/14 05:02:22;;;;;;;;;;;1.80;99.90;;;;;;2603413;54;20085;31
2024/01/14 05:04:57;;;;;;;5.45;2.85;;;1.80;99.90;;;;;;2603226;54;20689;31
2024/01/14 05:07:31;;;;;;;6.60;3.22;;;1.80;99.90;;;;;;2603174;54;20080;31
2024/01/14 05:10:06;;;;;;;6.43;3.17;;;1.80;99.90;;;;;;2701875;39;21501;31
2024/01/14 05:12:41;;;;;;;6.85;3.55;;;1.80;99.90;;;;;;2603482;54;20762;31
2024/01/14 05:15:18;;;;;;;7.10;3.20;;;1.80;99.90;;;;;;2603293;54;21078;31
2024/01/14 05:18:00;;;;;;;6.80;3.20;;;1.80;99.90;;;;;;2603060;54;20037;31
2024/01/14 05:20:35;;;;;;;6.27;3.20;;;1.80;99.90;;;;;;2603027;54;20030;31
2024/01/14 05:23:10;;;;;;;7.15;3.65;;;1.80;99.90;;;;;;2603231;54;20970;31
2024/01/14 05:25:46;;;;;;;4.80;2.17;;;1.80;99.90;;;;;;2621964;46;20875;31
2024/01/14 05:28:22;;;;;;;5.53;3.35;;;1.80;99.90;;;;;;2603220;54;21168;31
2024/01/14 05:30:57;;;;;;;4.90;3.20;;;1.80;99.90;;;;;;2701855;39;21444;31
2024/01/14 05:33:35;;;;;;;5.85;3.17;;;1.80;99.90;;;;;;2621377;46;20052;31
2024/01/14 05:36:11;;;;;;;6.10;2.65;;;1.70;99.90;;;;;;2621749;46;20909;31
2024/01/14 05:38:47;;;;;;;6.40;2.93;;;1.80;99.90;;;;;;2603123;54;20934;31
2024/01/14 05:41:22;;;;;;;5.40;2.95;;;1.70;99.90;;;;;;2621027;46;20027;31
2024/01/14 05:43:57;;;;;;;7.47;3.75;;;1.80;99.90;;;;;;2603273;54;20023;31
2024/01/14 05:46:32;;;;;;;6.35;3.80;;;1.80;99.90;;;;;;2603065;54;20030;31
2024/01/14 05:49:10;;;;;;;5.73;3.10;;;1.80;99.90;;;;;;2603056;54;20857;31
2024/01/14 05:51:46;;;;;;;7.32;3.05;;;1.70;99.90;;;;;;2603224;54;20160;31
2024/01/14 05:54:21;;;;;;;4.40;2.43;;;1.70;99.90;;;;;;2602963;54;20052;31
2024/01/14 05:56:57;;;;;;;5.50;2.50;;;1.70;99.90;;;;;;2603185;54;20026;31
2024/01/14 05:59:32;;;;;;;5.72;3.45;;;1.70;99.90;;;;;;2603212;54;20031;31
2024/01/14 06:02:07;;;;;;;4.43;2.63;;;1.70;99.90;;;;;;2603098;54;20027;31
2024/01/14 06:04:45;;;;;;;5.72;2.72;;;1.70;99.90;;;;;;2603049;54;20053;31
2024/01/14 06:07:20;;;;;;;4.13;2.75;;;1.70;99.90;;;;;;2603022;54;20855;31
2024/01/14 06:09:55;;;;;;;4.30;3.00;;;1.70;99.90;;;;;;2602765;54;20868;31
2024/01/14 06:12:30;;;;;;;6.15;3.30;;;1.70;99.90;;;;;;2621499;46;20038;31
2024/01/14 06:15:05;;;;;;;7.15;3.05;;;1.70;99.90;;;;;;2602970;54;20894;31
2024/01/14 06:17:40;;;;;;;4.27;2.87;;;1.70;99.90;;;;;;2621440;46;20860;31
2024/01/14 06:20:18;;;;;;;4.15;2.35;;;1.70;99.90;;;;;;2603059;54;20027;31
2024/01/14 06:22:53;;;;;;;5.57;2.63;;;1.70;99.90;;;;;;2602900;54;20022;31
2024/01/14 06:25:28;;;;;;;6.30;3.40;;;1.70;99.90;;;;;;2621741;46;20064;31
2024/01/14 06:28:04;;;;;;;5.28;3.90;;;1.70;99.90;;;;;;2621383;46;20086;31
2024/01/14 06:30:39;;;;;;;4.57;2.90;;;1.70;99.90;;;;;;2603193;54;20048;31
2024/01/14 06:33:14;;;;;;;6.30;3.50;;;1.70;99.90;;;;;;2602883;54;20025;31
2024/01/14 06:35:53;;;;;;;5.35;2.95;;;1.70;99.90;;;;;;2621784;46;20297;31
2024/01/14 06:38:28;;;;;;;6.63;3.47;;;1.70;99.90;;;;;;2602874;54;20876;31
2024/01/14 06:41:04;;;;;;;5.65;3.40;;;1.70;99.90;;;;;;2602961;54;20864;31
2024/01/14 06:43:45;;;;;;;5.35;3.17;;;1.70;99.90;;;;;;2602836;54;22391;31
2024/01/14 06:46:21;;;;;;;4.85;3.05;;;1.70;99.90;;;;;;2603181;54;20038;31
2024/01/14 06:48:56;;;;;;;6.18;3.03;;;1.70;99.90;;;;;;2603032;54;20848;31
2024/01/14 06:51:33;;;;;;;4.85;2.40;;;1.70;99.90;;;;;;2701765;39;21116;31
2024/01/14 06:54:08;;;;;;;7.28;2.58;;;1.70;99.90;;;;;;2602865;54;19935;31
2024/01/14 06:56:47;;;;;;;6.38;3.00;;;1.70;99.90;;;;;;2602945;54;20030;31
2024/01/14 06:59:22;;;;;;;10.40;3.37;;;1.70;99.90;;;;;;2602834;54;20112;31
2024/01/14 07:01:57;;;;;;;8.57;3.80;;;1.70;99.90;;;;;;2621342;46;20033;31
2024/01/14 07:04:32;;;;;;;8.95;4.10;;;1.70;99.90;;;;;;2603008;54;20986;31
2024/01/14 07:07:09;;;;;;;7.80;3.50;;;1.70;99.90;;;;;;2602707;54;20031;31
2024/01/14 07:09:44;;;;;;;8.20;4.38;;;1.70;99.90;;;;;;2602776;54;20034;31
2024/01/14 07:12:18;;;;;;;8.15;4.55;;;1.70;99.90;;;;;;2602724;54;20031;31
2024/01/14 07:14:59;;;;;;;6.72;3.88;;;1.70;99.90;;;;;;2621127;46;20095;31
2024/01/14 07:17:33;;;;;;;13.80;4.18;;;1.70;99.90;;;;;;2602855;54;20934;31
2024/01/14 07:20:28;;;;;;;5.67;3.20;;;1.70;99.90;;;;;;2602806;54;20870;31
2024/01/14 07:23:07;;;;;;;5.17;2.70;;;1.70;99.90;;;;;;2602924;54;21077;31
2024/01/14 07:26:04;;;;;;;7.88;3.30;;;1.70;99.90;;;;;;2602799;54;20027;31
2024/01/14 07:28:38;;;;;;;5.05;2.70;;;1.70;99.90;;;;;;2602648;54;20029;31
2024/01/14 07:31:16;;;;;;;7.38;2.85;;;1.70;99.90;;;;;;2602771;54;20956;31
2024/01/14 07:33:51;;;;;;;5.88;2.47;;;1.70;99.90;;;;;;2602696;54;20035;31
2024/01/14 07:36:27;;;;;;;5.95;2.83;;;1.80;99.90;;;;;;2602778;54;20858;31
2024/01/14 07:39:04;;;;;;;6.65;3.60;;;1.70;99.90;;;;;;2621502;46;20030;31
2024/01/14 07:41:39;;;;;;;7.68;3.70;;;1.80;99.90;;;;;;2701102;39;21487;31
2024/01/14 07:44:19;;;;;;;4.53;2.50;;;1.70;99.90;;;;;;2602644;54;20052;31
2024/01/14 07:46:54;;;;;;;5.78;3.05;;;1.80;99.90;;;;;;2621092;47;20026;31
2024/01/14 07:49:29;;;;;;;5.00;2.60;;;1.80;99.90;;;;;;2602752;54;20035;31
2024/01/14 07:52:05;;;;;;;4.35;2.35;;;1.80;99.90;;;;;;2602646;54;21128;31
2024/01/14 07:54:43;;;;;;;5.70;2.90;;;1.80;99.90;;;;;;2602625;54;20039;31
2024/01/14 07:57:17;;;;;;;4.57;2.73;;;1.80;99.90;;;;;;2701250;39;21421;31
2024/01/14 07:59:51;;;;;;;5.30;2.92;;;1.80;99.90;;;;;;2602661;54;20253;31
2024/01/14 08:02:23;;;;;;;8.47;2.70;;;1.80;99.90;;;;;;2701204;39;21198;31
2024/01/14 08:04:58;;;;;;;8.48;3.08;;;1.90;99.90;;;;;;2620741;47;20815;31
2024/01/14 08:07:32;;;;;;;5.80;3.80;;;1.80;99.90;;;;;;2620969;47;22488;31
2024/01/14 08:10:12;;;;;;;5.65;3.70;;;1.90;99.90;;;;;;2772567;31;21566;31
2024/01/14 08:12:47;;;;;;;5.45;3.47;;;1.90;99.90;;;;;;2602723;54;20027;31
2024/01/14 08:15:22;;;;;;;6.30;3.65;;;1.90;99.90;;;;;;2602714;54;20124;31
2024/01/14 08:17:56;;;;;;;4.95;2.85;;;1.90;99.90;;;;;;2602663;54;21192;31
2024/01/14 08:20:34;;;;;;;5.80;2.70;;;1.90;99.90;;;;;;2602552;54;20816;31
2024/01/14 08:23:09;;;;;;;5.60;2.90;;;1.90;99.90;;;;;;2620893;47;20026;31
2024/01/14 08:25:49;;;;;;;5.20;3.23;;;2.00;99.90;;;;;;2602382;54;20031;31
2024/01/14 08:28:24;;;;;;;6.57;3.60;;;2.00;99.90;;;;;;2602653;54;20242;31
2024/01/14 08:30:59;;;;;;;4.87;2.77;;;2.00;99.90;;;;;;2602577;54;20030;31
2024/01/14 08:33:34;;;;;;;4.78;2.67;;;2.00;99.90;;;;;;2621212;47;20053;31
2024/01/14 08:36:09;;;;;;;4.90;3.10;;;2.10;99.90;;;;;;2603275;54;20050;31
2024/01/14 08:38:44;;;;;;;6.07;3.23;;;2.10;99.90;;;;;;2621960;46;20884;31
2024/01/14 08:41:24;;;;;;;5.72;2.53;;;2.10;99.90;;;;;;2603072;54;20037;31
2024/01/14 08:43:59;;;;;;;5.25;2.72;;;2.10;99.90;;;;;;2621760;46;20923;31
2024/01/14 08:46:34;;;;;;;6.90;2.83;;;2.10;99.90;;;;;;2603401;54;20075;31
2024/01/14 08:49:10;;;;;;;5.90;2.03;;;2.10;99.90;;;;;;2603236;54;20104;31
2024/01/14 08:51:45;;;;;;;4.88;2.65;;;2.10;99.90;;;;;;2621577;46;20920;31
2024/01/14 08:54:19;;;;;;;4.73;2.40;;;2.10;99.90;;;;;;2773300;31;21221;31
2024/01/14 08:56:56;;;;;;;3.60;1.58;;;2.10;99.90;;;;;;2603318;54;20082;31
2024/01/14 08:59:31;;;;;;;6.15;2.10;;;2.10;99.90;;;;;;2720367;39;22363;31
2024/01/14 09:02:07;;;;;;;3.63;2.13;;;2.10;99.90;;;;;;2603140;54;20923;31
2024/01/14 09:04:42;;;;;;;3.78;1.88;;;2.20;99.90;;;;;;2603071;54;20926;31
2024/01/14 09:07:17;;;;;;;3.85;1.80;;;2.20;99.90;;;;;;2620947;46;20953;31
2024/01/14 09:09:51;;;;;;;6.37;1.83;;;2.20;99.90;;;;;;2603290;54;20068;31
2024/01/14 09:12:29;;;;;;;5.88;2.13;;;2.20;99.90;;;;;;2603194;54;20300;31
2024/01/14 09:15:04;;;;;;;5.75;2.55;;;2.20;99.90;;;;;;2603127;54;20037;31
2024/01/14 09:17:39;;;;;;;5.63;2.27;;;2.20;99.90;;;;;;2603324;54;20857;31
2024/01/14 09:20:15;;;;;;;4.72;2.47;;;2.20;99.90;;;;;;2603252;54;21078;31
2024/01/14 09:22:49;;;;;;;7.40;3.15;;;2.20;99.90;;;;;;2621274;46;20033;31
2024/01/14 09:25:25;;;;;;;7.32;2.63;;;2.20;99.90;;;;;;2621567;46;20030;31
2024/01/14 09:28:02;;;;;;;6.10;2.03;;;2.30;99.90;;;;;;2603128;54;20715;31
2024/01/14 09:30:36;;;;;;;5.15;2.33;;;2.40;99.90;;;;;;2603204;54;20931;31
2024/01/14 09:33:12;;;;;;;3.95;1.65;;;2.40;99.90;;;;;;2621367;46;20915;31
2024/01/14 09:35:47;;;;;;;5.97;2.70;;;2.50;99.90;;;;;;2603274;54;20907;31
2024/01/14 09:38:22;;;;;;;7.55;2.85;;;2.50;99.90;;;;;;2603115;54;20034;31
2024/01/14 09:40:59;;;;;;;4.40;2.72;;;2.60;99.90;;;;;;2603132;54;21136;31
2024/01/14 09:43:36;;;;;;;5.57;3.20;;;2.60;99.90;;;;;;2603236;54;20842;31
2024/01/14 09:46:11;;;;;;;4.63;2.30;;;2.60;99.90;;;;;;2603160;54;21096;31
2024/01/14 09:48:46;;;;;;;3.72;2.30;;;2.60;99.90;;;;;;2603215;54;20056;31
2024/01/14 09:51:21;;;;;;;4.50;2.87;;;2.70;99.90;;;;;;2603092;54;20907;31
2024/01/14 09:53:55;;;;;;;4.72;3.00;;;2.60;99.90;;;;;;2602940;54;20108;31
2024/01/14 09:56:31;;;;;;;4.80;3.10;;;2.70;99.90;;;;;;2603084;54;20854;31
2024/01/14 09:59:08;;;;;;;5.00;3.00;;;2.70;99.90;;;;;;2603050;54;20032;31
2024/01/14 10:01:43;;;;;;;5.70;2.83;;;2.70;99.90;;;;;;2602948;54;20027;31
2024/01/14 10:04:18;;;;;;;5.03;3.17;;;2.70;99.90;;;;;;2603219;54;20875;31
2024/01/14 10:06:53;;;;;;;5.30;3.10;;;2.70;99.90;;;;;;2621450;46;20090;31
2024/01/14 10:09:27;;;;;;;5.75;3.17;;;2.70;99.90;;;;;;2602652;54;20274;31
2024/01/14 10:12:02;;;;;;;5.85;3.50;;;2.70;99.90;;;;;;2603073;54;20841;31
2024/01/14 10:14:40;;;;;;;8.00;3.50;;;2.70;99.90;;;;;;2621209;46;20797;31
2024/01/14 10:17:16;;;;;;;6.72;3.50;;;2.80;99.90;;;;;;2621300;46;20157;31
2024/01/14 10:19:55;;;;;;;5.20;3.28;;;2.80;99.90;;;;;;2621676;46;20885;31
2024/01/14 10:22:30;;;;;;;6.40;3.00;;;2.80;99.90;;;;;;2602878;54;20030;31
2024/01/14 10:25:05;;;;;;;5.27;3.10;;;2.80;99.90;;;;;;2602901;54;20923;31
2024/01/14 10:27:39;;;;;;;5.40;3.10;;;2.80;99.90;;;;;;2602913;54;20880;31
2024/01/14 10:30:17;;;;;;;6.03;3.10;;;2.80;99.90;;;;;;2602865;54;20061;31
2024/01/14 10:32:53;;;;;;;6.70;3.73;;;2.90;99.90;;;;;;2602913;54;20894;31
2024/01/14 10:35:48;;;;;;;6.17;3.30;;;2.90;99.90;;;;;;2602927;54;21143;31
2024/01/14 10:38:25;;;;;;;6.43;3.65;;;2.90;99.90;;;;;;2603024;54;21863;31
2024/01/14 10:41:00;;;;;;;5.47;3.28;;;3.00;99.90;;;;;;2602835;54;20833;31
2024/01/14 10:43:38;;;;;;;7.50;3.93;;;3.00;99.90;;;;;;2602906;54;20030;31
2024/01/14 10:46:15;;;;;;;7.63;3.40;;;3.00;99.90;;;;;;2602935;54;21202;31
2024/01/14 10:48:50;;;;;;;7.65;3.47;;;3.00;99.90;;;;;;2602792;54;20246;31
2024/01/14 10:51:26;;;;;;;5.47;3.13;;;3.00;99.90;;;;;;2621094;46;20809;31
2024/01/14 10:54:04;;;;;;;6.40;3.27;;;3.00;99.90;;;;;;2621343;46;20033;31
2024/01/14 10:56:42;;;;;;;5.80;2.90;;;3.00;99.90;;;;;;2602745;54;20919;31
2024/01/14 10:59:17;;;;;;;4.53;2.47;;;3.00;99.90;;;;;;2602683;54;20030;31
2024/01/14 11:01:57;;;;;;;5.90;3.37;;;3.10;99.90;;;;;;2701292;39;20723;31
2024/01/14 11:04:32;;;;;;;6.03;2.93;;;3.20;99.90;;;;;;2602747;54;20030;31
2024/01/14 11:07:07;;;;;;;4.77;2.77;;;3.30;99.90;;;;;;2602781;54;21227;31
2024/01/14 11:09:42;;;;;;;12.90;3.80;;;3.30;99.90;;;;;;2602891;54;21217;31
2024/01/14 11:12:20;;;;;;;9.43;3.70;;;3.30;99.90;;;;;;2602775;54;20038;31
2024/01/14 11:15:07;;;;;;;7.95;3.72;;;3.20;99.90;;;;;;2602620;54;20046;31
2024/01/14 11:17:41;;;;;;;9.20;4.20;;;3.20;99.90;;;;;;2602916;54;20762;31
2024/01/14 11:20:19;;;;;;;9.02;4.60;;;3.20;99.90;;;;;;2602891;54;20987;31
2024/01/14 11:22:55;;;;;;;7.55;3.38;;;3.10;99.90;;;;;;2602790;54;20031;31
2024/01/14 11:25:34;;;;;;;4.55;2.65;;;3.10;99.90;;;;;;2602845;54;20030;31
2024/01/14 11:28:09;;;;;;;8.35;3.40;;;3.10;99.90;;;;;;2602759;54;20027;31
2024/01/14 11:30:50;;;;;;;8.10;3.50;;;3.10;99.90;;;;;;2602757;54;20988;31
2024/01/14 11:33:40;;;;;;;7.63;2.83;;;3.00;99.90;;;;;;2602583;54;20246;31
2024/01/14 11:36:53;;;;;;;7.63;2.97;;;3.00;99.90;;;;;;2602632;54;20932;31
2024/01/14 11:39:28;;;;;;;6.15;2.88;;;2.90;99.90;;;;;;2602803;54;20246;31
2024/01/14 11:42:01;;;;;;;6.00;3.58;;;2.80;99.90;;;;;;2620976;46;21812;31
2024/01/14 11:44:36;;;;;;;5.78;3.38;;;2.80;99.90;;;;;;2602765;54;20026;31
2024/01/14 11:47:11;;;;;;;6.10;2.88;;;2.80;99.90;;;;;;2602708;54;20034;31
2024/01/14 11:49:46;;;;;;;5.30;2.50;;;2.90;99.90;;;;;;2621095;47;20100;31
2024/01/14 11:52:23;;;;;;;4.50;2.53;;;2.80;99.90;;;;;;2620991;47;20031;31
2024/01/14 11:54:59;;;;;;;5.60;2.75;;;2.80;99.90;;;;;;2602675;54;20034;31
2024/01/14 11:57:35;;;;;;;4.43;2.60;;;2.90;99.90;;;;;;2602481;54;20030;31
2024/01/14 12:00:10;;;;;;;5.40;2.97;;;2.80;99.90;;;;;;2621059;47;20033;31
2024/01/14 12:02:45;;;;;;;5.60;3.80;;;2.80;99.90;;;;;;2602733;54;20246;31
2024/01/14 12:05:20;;;;;;;6.10;3.08;;;2.90;99.90;;;;;;2602657;54;21173;31
2024/01/14 12:08:02;;;;;;;6.38;2.55;;;2.90;99.90;;;;;;2602989;54;20048;31
2024/01/14 12:10:37;;;;;;;6.03;3.77;;;3.00;99.90;;;;;;2603509;54;20880;31
2024/01/14 12:13:14;;;;;;;5.15;2.95;;;3.00;99.90;;;;;;2620073;46;20227;31
2024/01/14 12:15:49;;;;;;;6.35;2.90;;;3.00;99.90;;;;;;2621739;46;20057;31
2024/01/14 12:18:44;;;;;;;5.47;2.80;;;3.10;99.90;;;;;;2603283;54;20876;31
2024/01/14 12:21:20;;;;;;;7.10;3.77;;;3.00;99.90;;;;;;2603417;54;20333;31
2024/01/14 12:24:09;;;;;;;7.32;3.65;;;3.00;99.90;;;;;;2621575;46;20803;31
2024/01/14 12:26:48;;;;;;;6.07;2.80;;;3.00;99.90;;;;;;2603288;54;20877;31
2024/01/14 12:29:23;;;;;;;5.95;2.75;;;3.00;99.90;;;;;;2603219;54;21152;31
2024/01/14 12:31:58;;;;;;;5.78;2.35;;;2.90;99.90;;;;;;2603463;54;20027;31
2024/01/14 12:34:33;;;;;;;5.93;2.85;;;2.90;99.90;;;;;;2603340;54;20086;31
2024/01/14 12:37:10;;;;;;;6.80;2.65;;;2.90;99.90;;;;;;2603272;54;20054;31
2024/01/14 12:39:50;;;;;;;4.97;2.67;;;2.90;99.90;;;;;;2603314;54;20085;31
2024/01/14 12:42:26;;;;;;;3.63;2.45;;;2.90;99.90;;;;;;2622009;46;20978;31
2024/01/14 12:45:03;;;;;;;4.90;2.20;;;2.80;99.90;;;;;;2603222;54;20085;31
2024/01/14 12:47:36;;;;;;;5.07;2.65;;;2.80;99.90;;;;;;2701853;39;21153;31
2024/01/14 12:50:11;;;;;;;6.30;2.95;;;2.80;99.90;;;;;;2603364;54;20762;31
2024/01/14 12:52:46;;;;;;;5.43;2.20;;;2.80;99.90;;;;;;2603360;54;20030;31
2024/01/14 12:55:29;;;;;;;4.37;2.53;;;2.80;99.90;;;;;;2603110;54;20037;31
2024/01/14 12:58:04;;;;;;;3.70;2.25;;;2.80;99.90;;;;;;2621599;46;20038;31
2024/01/14 13:00:42;;;;;;;4.60;1.90;;;2.80;99.90;;;;;;2603086;54;20027;31
2024/01/14 13:03:17;;;;;;;7.73;2.83;;;2.80;99.90;;;;;;2603281;54;20945;31
2024/01/14 13:05:52;;;;;;;5.50;1.85;;;2.80;99.90;;;;;;2603283;54;20031;31
2024/01/14 13:08:27;;;;;;;6.63;2.23;;;2.80;99.90;;;;;;2603037;54;20939;31
2024/01/14 13:11:04;;;;;;;3.05;1.60;;;2.90;99.90;;;;;;2603322;54;20970;31
2024/01/14 13:13:40;;;;;;;5.90;1.70;;;2.90;99.90;;;;;;2621676;46;20089;31
2024/01/14 13:16:15;;;;;;;5.75;2.20;;;2.90;99.90;;;;;;2603134;54;20124;31
2024/01/14 13:18:50;;;;;;;6.90;2.03;;;2.80;99.90;;;;;;2603113;54;20026;31
2024/01/14 13:21:25;;;;;;;5.20;2.13;;;2.90;99.90;;;;;;2603124;54;21933;31
2024/01/14 13:24:00;;;;;;;7.40;2.10;;;2.80;99.90;;;;;;2603192;54;20054;31
2024/01/14 13:26:46;;;;;;;;;;;2.80;99.90;;;;;;2603258;54;20889;31
2024/01/14 13:29:23;;;;;;;5.32;2.67;;;2.80;99.90;;;;;;2603150;54;21472;31
2024/01/14 13:31:58;;;;;;;6.75;2.00;;;2.80;99.90;;;;;;2602943;54;20864;31
2024/01/14 13:34:33;;;;;;;4.10;2.28;;;2.80;99.90;;;;;;2603110;54;20517;31
2024/01/14 13:37:10;;;;;;;7.07;3.00;;;2.80;99.90;;;;;;2603102;54;20935;31
2024/01/14 13:39:45;;;;;;;7.35;2.63;;;2.80;99.90;;;;;;2603181;54;20180;31
2024/01/14 13:42:20;;;;;;;11.55;2.70;;;2.80;99.90;;;;;;2603191;54;20510;31
2024/01/14 13:44:57;;;;;;;4.63;2.10;;;2.80;99.90;;;;;;2602951;54;20868;31
2024/01/14 13:47:33;;;;;;;7.63;2.33;;;2.80;99.90;;;;;;2603189;54;20250;31
2024/01/14 13:50:09;;;;;;;4.23;2.20;;;2.80;99.90;;;;;;2603025;54;20105;31
2024/01/14 13:52:44;;;;;;;6.35;1.75;;;2.80;99.90;;;;;;2602989;54;20278;31
2024/01/14 13:55:19;;;;;;;5.75;2.03;;;2.80;99.90;;;;;;2603379;54;20057;31